Time;durP1;ratioP1;P1;durP2;ratioP2;P2;SDS_P1;SDS_P2;PMS_P1;PMS_P2;Temp;Humidity;BMP_temperature;BMP_pressure;BME280_temperature;BME280_humidity;BME280_pressure;Samples;Min_cycle;Max_cycle;Signal;HPM_P1;HPM_P2
2022/06/19 00:01:58;;;;;;;;;14.25;13.00;;;;;29.64;43.74;99841.66;5118529;27;45503;-77
2022/06/19 00:04:24;;;;;;;;;14.75;10.75;;;;;29.46;44.98;99837.28;5117494;27;45384;-78
2022/06/19 00:06:50;;;;;;;;;17.75;15.75;;;;;29.37;45.19;99833.72;5118146;27;45345;-78
2022/06/19 00:09:16;;;;;;;;;13.75;13.00;;;;;29.20;45.48;99843.75;5118007;27;46007;-78
2022/06/19 00:11:41;;;;;;;;;11.75;9.00;;;;;28.97;46.90;99853.53;5118340;27;45399;-78
2022/06/19 00:14:07;;;;;;;;;14.50;11.00;;;;;28.83;47.37;99869.50;5116438;27;45857;-77
2022/06/19 00:16:33;;;;;;;;;16.50;15.75;;;;;28.75;47.71;99893.09;5116876;27;45277;-78
2022/06/19 00:18:59;;;;;;;;;16.25;12.50;;;;;28.62;48.03;99909.84;5116486;27;46724;-77
2022/06/19 00:21:24;;;;;;;;;15.00;15.00;;;;;28.47;48.18;99906.88;5117256;27;45335;-76
2022/06/19 00:23:50;;;;;;;;;15.25;14.00;;;;;28.26;47.68;99899.16;5117094;27;45276;-77
2022/06/19 00:26:15;;;;;;;;;12.00;10.75;;;;;28.04;48.12;99906.81;5115354;27;45452;-78
2022/06/19 00:28:44;;;;;;;;;10.00;10.00;;;;;27.90;47.56;99904.66;5115033;27;46024;-77
2022/06/19 00:31:10;;;;;;;;;12.50;11.00;;;;;27.68;48.32;99909.59;5116562;27;45441;-78
2022/06/19 00:33:35;;;;;;;;;10.75;9.25;;;;;27.54;47.53;99900.13;5116718;27;45456;-76
2022/06/19 00:36:01;;;;;;;;;13.00;10.25;;;;;27.34;47.90;99888.63;5115525;27;45578;-77
2022/06/19 00:38:26;;;;;;;;;10.00;8.25;;;;;27.14;48.09;99893.31;5110521;27;45382;-77
2022/06/19 00:40:56;;;;;;;;;11.00;9.75;;;;;26.95;47.92;99869.91;5116765;27;45490;-77
2022/06/19 00:43:21;;;;;;;;;11.00;8.00;;;;;26.81;48.34;99884.84;5116703;27;45416;-77
2022/06/19 00:45:50;;;;;;;;;8.25;8.25;;;;;26.64;48.02;99886.47;5116071;27;45480;-78
2022/06/19 00:48:30;;;;;;;;;11.00;9.00;;;;;26.54;48.37;99875.72;5098342;27;45367;-77
2022/06/19 00:50:59;;;;;;;;;8.00;8.00;;;;;26.36;48.79;99894.59;5096301;27;45316;-77
2022/06/19 00:53:32;;;;;;;;;9.75;9.25;;;;;26.27;48.79;99906.34;5101413;27;45465;-78
2022/06/19 00:55:58;;;;;;;;;7.75;7.50;;;;;26.19;48.67;99939.56;5116634;27;45479;-81
2022/06/19 00:58:30;;;;;;;;;7.75;7.50;;;;;26.02;48.70;99941.16;5116771;27;45547;-80
2022/06/19 01:01:00;;;;;;;;;6.00;6.00;;;;;25.70;48.50;99934.19;5116621;27;45405;-80
2022/06/19 01:03:41;;;;;;;;;8.25;7.50;;;;;25.49;48.31;99944.31;5120107;27;45412;-81
2022/06/19 01:06:08;;;;;;;;;7.50;7.00;;;;;25.24;48.54;99924.94;5116401;27;45549;-80
2022/06/19 01:08:34;;;;;;;;;9.00;9.00;;;;;25.07;49.17;99933.72;5116747;27;45764;-79
2022/06/19 01:10:59;;;;;;;;;10.50;9.50;;;;;24.91;49.53;99950.50;5117005;27;45500;-81
2022/06/19 01:13:29;;;;;;;;;7.00;5.50;;;;;24.69;49.86;99927.22;5116969;27;45414;-79
2022/06/19 01:15:55;;;;;;;;;9.00;7.50;;;;;24.46;49.71;99935.50;5117372;27;45402;-78
2022/06/19 01:18:21;;;;;;;;;9.75;8.25;;;;;24.36;49.42;99950.84;5115592;27;47309;-80
2022/06/19 01:20:52;;;;;;;;;8.75;7.00;;;;;24.23;50.16;99943.81;5116873;27;45365;-77
2022/06/19 01:23:36;;;;;;;;;8.50;7.25;;;;;24.02;50.39;99938.44;5117461;27;45385;-76
2022/06/19 01:26:02;;;;;;;;;9.50;9.50;;;;;23.78;50.58;99944.06;5112126;27;45433;-76
2022/06/19 01:28:54;;;;;;;;;8.00;8.00;;;;;23.60;50.54;99947.31;5131397;27;46254;-78
2022/06/19 01:31:26;;;;;;;;;11.25;9.75;;;;;23.35;50.99;99944.97;5114154;27;45448;-76
2022/06/19 01:34:01;;;;;;;;;9.25;8.75;;;;;23.17;51.34;99937.44;5115614;27;45443;-77
2022/06/19 01:36:30;;;;;;;;;12.75;10.75;;;;;23.02;51.35;99949.47;5116864;27;45432;-77
2022/06/19 01:38:57;;;;;;;;;11.00;10.00;;;;;22.81;51.31;99962.84;5114275;27;45510;-77
2022/06/19 01:41:28;;;;;;;;;9.00;9.00;;;;;22.60;51.74;99968.13;5116016;27;45352;-76
2022/06/19 01:43:54;;;;;;;;;13.00;11.25;;;;;22.48;52.10;99967.25;5115506;27;45549;-77
2022/06/19 01:46:22;;;;;;;;;16.50;11.00;;;;;22.28;52.52;99966.97;5115524;27;45445;-78
2022/06/19 01:48:47;;;;;;;;;13.25;11.50;;;;;22.19;52.28;99960.47;5115692;27;45627;-77
2022/06/19 01:51:13;;;;;;;;;11.50;11.00;;;;;22.15;52.27;99959.00;5116070;27;45477;-80
2022/06/19 01:53:43;;;;;;;;;9.75;9.50;;;;;22.12;52.38;99961.94;5115769;27;45336;-80
2022/06/19 01:56:11;;;;;;;;;12.00;12.00;;;;;22.01;52.64;99945.75;5116473;27;45420;-81
2022/06/19 01:58:41;;;;;;;;;11.25;10.25;;;;;21.86;52.90;99939.72;5114263;27;46473;-80
2022/06/19 02:01:09;;;;;;;;;13.50;12.75;;;;;21.82;52.82;99952.56;5131734;27;45263;-80
2022/06/19 02:03:42;;;;;;;;;10.75;10.50;;;;;21.76;53.03;99946.81;5114744;27;45665;-81
2022/06/19 02:06:09;;;;;;;;;13.00;11.00;;;;;21.59;53.15;99948.09;5114741;27;45468;-80
2022/06/19 02:08:35;;;;;;;;;12.75;11.25;;;;;21.45;53.51;99975.97;5114163;27;46312;-81
2022/06/19 02:11:03;;;;;;;;;11.00;10.75;;;;;21.27;53.45;99986.28;5115018;27;45507;-81
2022/06/19 02:13:32;;;;;;;;;13.00;13.00;;;;;21.19;53.67;100005.66;5114933;27;45428;-81
2022/06/19 02:15:58;;;;;;;;;12.75;11.25;;;;;21.26;53.63;100044.53;5117619;27;45509;-81
2022/06/19 02:18:28;;;;;;;;;14.25;10.00;;;;;21.19;53.81;100063.91;5120202;27;45691;-80
2022/06/19 02:20:54;;;;;;;;;11.75;11.75;;;;;21.15;53.45;100047.16;5120061;27;45429;-80
2022/06/19 02:23:25;;;;;;;;;12.75;11.50;;;;;21.16;53.41;100015.78;5119466;27;45363;-80
2022/06/19 02:25:51;;;;;;;;;11.50;11.50;;;;;21.22;53.55;100047.56;5114176;27;45376;-81
2022/06/19 02:28:18;;;;;;;;;10.25;10.00;;;;;21.14;53.43;100034.69;5098922;27;46146;-79
2022/06/19 02:30:45;;;;;;;;;10.00;10.00;;;;;21.12;53.62;100053.59;5097094;27;45412;-77
2022/06/19 02:33:16;;;;;;;;;15.50;12.75;;;;;21.13;53.50;100049.09;5099292;27;45263;-76
2022/06/19 02:35:42;;;;;;;;;9.75;9.75;;;;;21.11;53.79;100056.41;5100910;27;45386;-78
2022/06/19 02:38:08;;;;;;;;;10.75;10.50;;;;;21.10;53.89;100033.19;5120449;27;45552;-75
2022/06/19 02:40:53;;;;;;;;;9.25;8.00;;;;;21.04;54.38;100023.72;5118228;27;45511;-77
2022/06/19 02:43:24;;;;;;;;;13.75;9.75;;;;;21.00;54.27;100033.00;5118370;27;45392;-77
2022/06/19 02:45:49;;;;;;;;;8.25;8.25;;;;;20.92;54.30;100035.38;5117999;27;45393;-77
2022/06/19 02:48:30;;;;;;;;;11.50;9.00;;;;;20.82;54.57;100055.81;5118378;27;45396;-81
2022/06/19 02:50:58;;;;;;;;;10.00;9.25;;;;;20.92;54.50;100247.53;5119372;27;45435;-80
2022/06/19 02:53:24;;;;;;;;;10.25;10.25;;;;;20.89;54.24;100314.91;5118944;27;45441;-80
2022/06/19 02:55:50;;;;;;;;;10.00;10.00;;;;;20.91;54.41;100144.63;5119399;27;45722;-80
2022/06/19 02:58:16;;;;;;;;;9.00;8.75;;;;;20.81;54.19;100180.28;5116961;27;46085;-81
2022/06/19 03:00:42;;;;;;;;;9.75;9.00;;;;;20.89;54.36;100231.63;5118778;27;45380;-80
2022/06/19 03:03:16;;;;;;;;;9.00;9.00;;;;;20.88;54.24;100229.94;5118958;27;45345;-81
2022/06/19 03:05:42;;;;;;;;;13.25;11.00;;;;;20.91;54.40;100227.03;5122454;27;45534;-79
2022/06/19 03:08:08;;;;;;;;;11.50;11.50;;;;;20.87;54.31;100238.94;5121060;27;46960;-80
2022/06/19 03:10:33;;;;;;;;;12.00;11.00;;;;;20.83;54.47;100191.78;5120317;27;45413;-80
2022/06/19 03:12:58;;;;;;;;;13.25;11.00;;;;;20.91;53.94;100208.25;5120631;27;45462;-80
2022/06/19 03:15:24;;;;;;;;;10.00;8.75;;;;;20.91;54.06;100218.97;5119524;27;45467;-80
2022/06/19 03:17:50;;;;;;;;;10.50;10.50;;;;;21.01;53.97;100173.53;5118570;27;45352;-80
2022/06/19 03:20:18;;;;;;;;;12.50;12.00;;;;;20.92;54.39;100183.09;5120428;27;45465;-80
2022/06/19 03:22:43;;;;;;;;;13.75;10.75;;;;;20.85;54.44;100216.72;5120449;27;45513;-79
2022/06/19 03:25:09;;;;;;;;;12.25;11.00;;;;;20.83;54.27;100218.63;5118863;27;45491;-81
2022/06/19 03:27:34;;;;;;;;;13.75;11.00;;;;;20.80;54.24;100182.13;5117598;27;45599;-80
2022/06/19 03:30:00;;;;;;;;;10.50;10.00;;;;;20.66;54.76;100174.16;5118891;27;45455;-80
2022/06/19 03:32:25;;;;;;;;;4.75;3.75;;;;;20.56;54.63;100187.31;5117933;27;45756;-80
2022/06/19 03:34:51;;;;;;;;;11.00;10.00;;;;;20.52;54.97;100175.06;5118291;27;45571;-79
2022/06/19 03:37:16;;;;;;;;;9.75;9.00;;;;;20.46;54.91;100183.53;5117667;27;45499;-80
2022/06/19 03:39:41;;;;;;;;;13.00;11.00;;;;;20.55;54.99;100197.19;5108860;27;45893;-80
2022/06/19 03:42:08;;;;;;;;;9.75;9.75;;;;;20.55;54.69;100209.75;5118417;27;45538;-79
2022/06/19 03:44:34;;;;;;;;;10.50;10.50;;;;;20.55;54.94;100223.16;5097625;27;45658;-78
2022/06/19 03:46:59;;;;;;;;;15.00;12.00;;;;;20.52;54.41;100220.69;5109214;27;45466;-77
2022/06/19 03:49:26;;;;;;;;;10.25;10.25;;;;;20.49;54.56;100226.28;5117539;27;45386;-77
2022/06/19 03:51:52;;;;;;;;;8.75;8.75;;;;;20.48;54.34;100192.31;5117214;27;45460;-77
2022/06/19 03:54:17;;;;;;;;;9.50;9.50;;;;;20.40;54.61;100179.44;5117327;27;45428;-76
2022/06/19 03:56:42;;;;;;;;;11.25;10.25;;;;;20.25;54.52;100149.13;5116402;27;46779;-76
2022/06/19 03:59:10;;;;;;;;;12.00;12.00;;;;;20.25;54.84;100186.69;5117168;27;45495;-76
2022/06/19 04:01:39;;;;;;;;;14.25;11.50;;;;;20.32;55.02;100211.28;5117037;27;45491;-78
2022/06/19 04:04:04;;;;;;;;;13.50;12.75;;;;;20.31;54.44;100244.44;5117747;27;45403;-79
2022/06/19 04:06:33;;;;;;;;;12.50;12.50;;;;;20.29;54.50;100322.38;5115798;27;46287;-79
2022/06/19 04:08:59;;;;;;;;;10.75;10.25;;;;;20.41;54.53;100396.72;5118230;27;45468;-79
2022/06/19 04:11:26;;;;;;;;;11.25;10.00;;;;;20.57;54.27;100336.66;5117579;27;45417;-80
2022/06/19 04:13:53;;;;;;;;;11.00;10.25;;;;;20.61;54.61;100203.13;5118293;27;45660;-80
2022/06/19 04:16:27;;;;;;;;;11.75;10.00;;;;;20.49;57.19;100129.66;5116628;27;47037;-81
2022/06/19 04:18:55;;;;;;;;;12.25;12.25;;;;;20.30;59.36;100106.75;5118167;27;45463;-80
2022/06/19 04:21:24;;;;;;;;;14.00;13.00;;;;;20.20;60.80;100092.25;5118811;27;45480;-78
2022/06/19 04:23:56;;;;;;;;;14.25;12.00;;;;;20.00;64.21;100102.47;5118145;27;45516;-80
2022/06/19 04:26:23;;;;;;;;;13.50;13.00;;;;;20.01;62.73;100104.22;5116988;27;46258;-82
2022/06/19 04:28:48;;;;;;;;;14.50;12.50;;;;;19.94;63.63;100143.13;5117289;27;45606;-80
2022/06/19 04:31:14;;;;;;;;;15.75;15.00;;;;;19.80;63.17;100111.88;5118331;27;45451;-79
2022/06/19 04:33:40;;;;;;;;;7.75;7.75;;;;;19.57;63.39;100099.94;5117970;27;45632;-80
2022/06/19 04:36:14;;;;;;;;;15.75;12.25;;;;;19.44;63.61;100139.19;5106474;27;47145;-80
2022/06/19 04:38:41;;;;;;;;;12.00;10.25;;;;;19.33;63.07;100130.03;5114784;27;45392;-79
2022/06/19 04:41:15;;;;;;;;;13.50;10.00;;;;;19.33;63.14;100135.38;5116053;27;45396;-80
2022/06/19 04:43:41;;;;;;;;;13.00;11.00;;;;;19.10;63.58;100154.69;5116159;27;45401;-80
2022/06/19 04:46:07;;;;;;;;;18.25;13.25;;;;;18.87;64.59;100140.91;5114200;27;46591;-80
2022/06/19 04:48:34;;;;;;;;;12.50;10.00;;;;;18.87;64.23;100148.09;5115852;27;45502;-80
2022/06/19 04:51:00;;;;;;;;;15.75;12.50;;;;;18.79;64.45;100140.50;5115830;27;45328;-80
2022/06/19 04:53:27;;;;;;;;;13.00;13.00;;;;;18.83;64.11;100126.00;5115739;27;45338;-80
2022/06/19 04:55:52;;;;;;;;;14.75;12.25;;;;;18.86;64.47;100103.53;5115923;27;46548;-80
2022/06/19 04:58:22;;;;;;;;;14.75;10.00;;;;;18.81;64.74;100133.22;5115532;27;45498;-80
2022/06/19 05:00:49;;;;;;;;;14.50;12.00;;;;;18.80;64.33;100121.66;5117740;27;45450;-80
2022/06/19 05:03:14;;;;;;;;;12.50;10.25;;;;;18.70;64.06;100159.81;5119913;27;45333;-80
2022/06/19 05:05:39;;;;;;;;;12.50;10.75;;;;;18.67;64.14;100119.84;5128644;27;46308;-79
2022/06/19 05:08:05;;;;;;;;;17.75;13.25;;;;;18.71;64.87;100132.94;5126044;27;45385;-80
2022/06/19 05:10:30;;;;;;;;;9.00;7.25;;;;;18.68;63.34;100196.50;5119561;27;45421;-79
2022/06/19 05:12:56;;;;;;;;;11.75;10.75;;;;;18.78;63.22;100240.50;5117303;27;45530;-81
2022/06/19 05:15:21;;;;;;;;;13.00;10.75;;;;;18.83;63.63;100195.59;5121841;27;46358;-78
2022/06/19 05:17:47;;;;;;;;;9.75;8.00;;;;;18.77;64.44;100083.53;5128577;27;44839;-80
2022/06/19 05:20:12;;;;;;;;;12.75;10.50;;;;;18.72;64.29;100062.41;5123889;27;45409;-78
2022/06/19 05:22:38;;;;;;;;;11.75;8.75;;;;;18.73;64.05;100090.03;5121791;27;45507;-79
2022/06/19 05:25:08;;;;;;;;;7.00;7.00;;;;;18.69;64.64;100059.03;5123047;27;45959;-78
2022/06/19 05:27:36;;;;;;;;;7.50;7.50;;;;;18.47;64.74;99942.66;5119729;27;45555;-80
2022/06/19 05:30:04;;;;;;;;;11.00;7.50;;;;;18.24;65.82;99941.41;5117252;27;45497;-77
2022/06/19 05:32:29;;;;;;;;;7.50;6.25;;;;;18.15;65.94;99990.13;5114329;27;45650;-75
2022/06/19 05:34:55;;;;;;;;;8.50;6.00;;;;;18.22;65.24;100045.81;5114734;27;45356;-76
2022/06/19 05:37:20;;;;;;;;;10.50;8.50;;;;;18.21;65.83;100033.38;5113234;27;45386;-79
2022/06/19 05:39:45;;;;;;;;;6.75;5.50;;;;;18.12;65.47;100066.03;5115647;27;45365;-76
2022/06/19 05:42:11;;;;;;;;;7.00;7.00;;;;;18.18;64.76;100081.72;5114283;27;45338;-75
2022/06/19 05:44:37;;;;;;;;;4.00;4.00;;;;;18.20;65.38;100095.84;5113892;27;46548;-76
2022/06/19 05:47:02;;;;;;;;;11.50;7.75;;;;;18.17;65.64;100085.31;5111908;27;45537;-79
2022/06/19 05:49:27;;;;;;;;;6.25;4.50;;;;;18.09;65.37;100091.13;5114808;27;45398;-79
2022/06/19 05:51:53;;;;;;;;;8.75;4.00;;;;;18.04;65.61;100079.84;5116604;27;45368;-79
2022/06/19 05:54:18;;;;;;;;;7.00;7.00;;;;;18.02;65.02;100059.50;5114918;27;45351;-79
2022/06/19 05:56:44;;;;;;;;;9.00;7.00;;;;;18.06;65.13;100012.94;5115369;27;45557;-80
2022/06/19 05:59:09;;;;;;;;;9.25;7.75;;;;;18.00;65.08;100002.59;5116118;27;45299;-79
2022/06/19 06:01:34;;;;;;;;;14.25;11.25;;;;;18.03;64.92;99981.03;5114101;27;45505;-80
2022/06/19 06:04:00;;;;;;;;;16.00;13.50;;;;;17.89;64.78;99955.97;5108776;27;47680;-79
2022/06/19 06:06:28;;;;;;;;;11.50;10.50;;;;;17.93;64.69;99944.16;5113989;27;45461;-80
2022/06/19 06:08:54;;;;;;;;;11.50;11.50;;;;;17.92;64.69;99957.63;5112905;27;45626;-79
2022/06/19 06:11:21;;;;;;;;;6.25;6.00;;;;;17.86;64.19;99961.47;5109654;27;45637;-80
2022/06/19 06:13:47;;;;;;;;;12.25;8.25;;;;;17.93;64.16;99960.19;5115066;27;45494;-78
2022/06/19 06:16:14;;;;;;;;;4.25;4.25;;;;;17.93;63.91;99984.25;5112989;27;45496;-77
2022/06/19 06:18:40;;;;;;;;;7.00;6.75;;;;;18.03;62.80;100003.25;5115333;27;45399;-77
2022/06/19 06:21:10;;;;;;;;;6.25;6.25;;;;;18.02;62.85;100067.53;5115691;27;45323;-77
2022/06/19 06:23:35;;;;;;;;;2.00;2.00;;;;;18.08;62.96;100121.53;5113762;27;46362;-76
2022/06/19 06:26:08;;;;;;;;;4.75;3.50;;;;;18.13;62.88;100109.66;5114508;27;45467;-78
2022/06/19 06:28:35;;;;;;;;;4.00;4.00;;;;;18.24;62.84;100160.72;5130983;27;45493;-78
2022/06/19 06:31:01;;;;;;;;;9.25;5.00;;;;;18.17;61.34;100113.91;5114561;27;45378;-77
2022/06/19 06:33:26;;;;;;;;;4.00;4.00;;;;;18.32;61.99;100147.75;5129360;27;46073;-77
2022/06/19 06:35:51;;;;;;;;;3.00;3.00;;;;;18.43;62.31;100176.53;5113809;27;45414;-76
2022/06/19 06:38:17;;;;;;;;;6.00;6.00;;;;;18.45;62.93;100142.56;5113454;27;45771;-80
2022/06/19 06:40:42;;;;;;;;;3.75;3.00;;;;;18.47;62.84;100136.13;5114055;27;45550;-78
2022/06/19 06:43:08;;;;;;;;;4.50;4.50;;;;;18.45;62.94;100102.44;5115267;27;45929;-78
2022/06/19 06:45:34;;;;;;;;;4.75;4.00;;;;;18.46;62.23;100130.88;5114665;27;45698;-79
2022/06/19 06:48:00;;;;;;;;;6.00;4.50;;;;;18.61;61.98;100134.44;5117051;27;45406;-77
2022/06/19 06:50:26;;;;;;;;;6.00;6.00;;;;;18.67;61.79;100119.84;5116180;27;45576;-78
2022/06/19 06:52:52;;;;;;;;;7.00;6.00;;;;;18.67;62.93;100052.94;5115907;27;46827;-77
2022/06/19 06:55:18;;;;;;;;;5.00;4.00;;;;;18.49;65.13;99929.19;5115774;27;45354;-78
2022/06/19 06:57:44;;;;;;;;;2.25;2.25;;;;;18.32;64.48;99960.50;5115065;27;45405;-76
2022/06/19 07:00:16;;;;;;;;;5.50;2.50;;;;;18.33;64.09;99988.16;5113702;27;45482;-77
2022/06/19 07:02:42;;;;;;;;;8.50;7.00;;;;;18.34;64.33;99995.19;5115618;27;47097;-77
2022/06/19 07:05:08;;;;;;;;;5.50;3.50;;;;;18.26;64.45;100014.38;5118234;27;45434;-78
2022/06/19 07:07:33;;;;;;;;;7.50;6.00;;;;;18.21;63.60;100028.03;5100123;27;45460;-76
2022/06/19 07:09:58;;;;;;;;;9.50;7.75;;;;;18.04;64.16;100033.56;5117698;27;45555;-76
2022/06/19 07:12:24;;;;;;;;;6.25;6.25;;;;;17.90;65.21;100032.56;5118912;27;45444;-77
2022/06/19 07:14:49;;;;;;;;;7.00;5.00;;;;;17.85;65.35;100020.38;5121762;27;45389;-77
2022/06/19 07:17:14;;;;;;;;;4.50;4.50;;;;;17.90;65.77;100061.97;5117963;27;45666;-77
2022/06/19 07:19:40;;;;;;;;;4.00;4.00;;;;;17.93;66.45;100147.31;5118708;27;45448;-76
2022/06/19 07:22:05;;;;;;;;;7.50;6.75;;;;;18.00;66.67;100165.69;5118591;27;46726;-76
2022/06/19 07:24:30;;;;;;;;;5.00;5.00;;;;;18.05;66.22;100185.00;5118401;27;45469;-77
2022/06/19 07:26:56;;;;;;;;;6.25;6.00;;;;;18.07;65.16;100178.63;5117591;27;45404;-78
2022/06/19 07:29:23;;;;;;;;;5.00;4.50;;;;;18.10;64.56;100172.22;5118302;27;45381;-77
2022/06/19 07:31:48;;;;;;;;;5.00;3.25;;;;;18.08;65.12;100200.84;5117192;27;45497;-77
2022/06/19 07:34:13;;;;;;;;;3.75;3.75;;;;;18.15;65.04;100277.13;5117607;27;47757;-78
2022/06/19 07:36:39;;;;;;;;;7.00;6.00;;;;;18.18;64.27;100338.44;5117120;27;45356;-79
2022/06/19 07:39:05;;;;;;;;;6.50;5.50;;;;;18.23;64.23;100298.94;5106686;27;45412;-78
2022/06/19 07:41:30;;;;;;;;;4.50;3.00;;;;;18.26;63.56;100253.28;5137309;27;46055;-77
2022/06/19 07:43:56;;;;;;;;;3.50;3.50;;;;;18.38;63.92;100299.03;5117002;27;45505;-78
2022/06/19 07:46:25;;;;;;;;;7.50;4.50;;;;;18.44;63.20;100263.91;5116512;27;45448;-80
2022/06/19 07:51:34;;;;;;;;;4.00;4.00;;;;;18.60;63.42;100264.72;5117799;27;45399;-78
2022/06/19 07:54:01;;;;;;;;;4.00;4.00;;;;;18.69;62.57;100233.00;5118235;27;45457;-80
2022/06/19 07:56:27;;;;;;;;;7.50;6.50;;;;;18.78;62.45;100238.69;5116749;27;45473;-79
2022/06/19 07:58:52;;;;;;;;;8.00;7.00;;;;;18.80;60.38;100281.44;5118862;27;45369;-80
2022/06/19 08:01:17;;;;;;;;;6.50;4.00;;;;;18.92;61.45;100354.84;5117557;27;47871;-80
2022/06/19 08:03:43;;;;;;;;;5.50;4.00;;;;;18.99;61.37;100378.50;5121492;27;45547;-79
2022/06/19 08:06:08;;;;;;;;;6.00;6.00;;;;;19.01;60.54;100322.19;5121883;27;45668;-79
2022/06/19 08:08:34;;;;;;;;;10.25;6.00;;;;;18.87;61.07;100295.34;5121065;27;45432;-79
2022/06/19 08:11:00;;;;;;;;;6.00;5.25;;;;;18.81;61.31;100310.78;5117800;27;45540;-78
2022/06/19 08:13:30;;;;;;;;;7.00;5.25;;;;;18.90;61.61;100271.91;5117019;27;45299;-78
2022/06/19 08:15:59;;;;;;;;;7.50;6.50;;;;;18.94;60.88;100240.47;5115331;27;45443;-78
2022/06/19 08:18:26;;;;;;;;;7.00;7.00;;;;;19.06;60.81;100230.84;5117558;27;45566;-78
2022/06/19 08:20:52;;;;;;;;;7.50;6.50;;;;;19.17;60.07;100247.97;5117252;27;45906;-80
2022/06/19 08:23:19;;;;;;;;;7.00;7.00;;;;;19.20;60.20;100240.72;5116580;27;45470;-78
2022/06/19 08:25:46;;;;;;;;;8.50;7.00;;;;;19.16;59.48;100222.16;5109627;27;45388;-80
2022/06/19 08:28:14;;;;;;;;;6.50;5.75;;;;;19.09;60.03;100201.22;5117912;27;45397;-80
2022/06/19 08:30:42;;;;;;;;;5.25;5.25;;;;;18.97;60.57;100166.19;5119064;27;45604;-81
2022/06/19 08:33:08;;;;;;;;;7.25;7.25;;;;;18.75;59.85;100144.31;5121284;27;44845;-81
2022/06/19 08:35:39;;;;;;;;;10.75;8.75;;;;;18.91;59.91;100171.91;5119687;27;46305;-77
2022/06/19 08:38:09;;;;;;;;;6.25;6.25;;;;;18.89;61.56;100147.06;5118686;27;45193;-79
2022/06/19 08:40:51;;;;;;;;;8.25;6.50;;;;;18.99;60.50;100134.84;5134961;27;47186;-79
2022/06/19 08:43:42;;;;;;;;;12.00;7.50;;;;;18.90;60.16;100121.97;5122626;27;45305;-75
2022/06/19 08:46:38;;;;;;;;;10.25;10.25;;;;;18.77;60.20;100113.84;5097190;27;45504;-78
2022/06/19 08:49:29;;;;;;;;;9.75;9.25;;;;;18.80;61.46;100088.69;5095298;27;45641;-80
2022/06/19 08:52:16;;;;;;;;;13.50;10.00;;;;;18.93;61.02;100115.59;5094536;27;46645;-80
2022/06/19 08:54:53;;;;;;;;;7.25;7.00;;;;;18.96;60.63;100129.66;5094487;27;45476;-80
2022/06/19 08:57:57;;;;;;;;;10.75;10.75;;;;;18.97;60.87;100123.34;5096247;27;45462;-79
2022/06/19 09:00:36;;;;;;;;;8.00;7.50;;;;;18.95;60.64;100101.16;5095972;27;45589;-80
2022/06/19 09:06:49;;;;;;;;;7.50;7.50;;;;;19.68;58.96;100101.91;5105704;27;45607;-78
2022/06/19 09:09:41;;;;;;;;;9.75;7.25;;;;;20.36;58.17;100149.28;5075157;28;45405;-77
2022/06/19 09:12:44;;;;;;;;;10.50;8.25;;;;;20.74;55.49;100183.41;5075388;28;45724;-78
2022/06/19 09:15:16;;;;;;;;;15.75;11.25;;;;;20.78;55.44;100197.47;5092610;27;45524;-79
2022/06/19 09:17:47;;;;;;;;;10.50;10.00;;;;;20.96;54.90;100229.41;5078818;27;45499;-80
2022/06/19 09:20:37;;;;;;;;;9.50;6.75;;;;;21.15;54.89;100245.09;5097222;27;45390;-81
2022/06/19 09:23:19;;;;;;;;;10.00;9.00;;;;;21.28;54.64;100254.03;5108589;27;45640;-81
2022/06/19 09:26:02;;;;;;;;;11.00;11.00;;;;;21.30;54.03;100217.16;5116441;27;45438;-79
2022/06/19 09:28:45;;;;;;;;;13.00;10.00;;;;;21.93;54.52;100231.50;5098805;27;45777;-81
2022/06/19 09:31:22;;;;;;;;;11.00;9.00;;;;;22.47;52.44;100229.38;5115922;27;45365;-82
2022/06/19 09:34:31;;;;;;;;;12.25;10.50;;;;;22.92;51.19;100244.84;5120451;27;45365;-81
2022/06/19 09:37:20;;;;;;;;;11.50;11.50;;;;;23.28;50.40;100216.03;5106650;27;46717;-81
2022/06/19 09:39:54;;;;;;;;;14.25;11.75;;;;;24.08;48.85;100250.97;5112241;27;45416;-81
2022/06/19 09:42:22;;;;;;;;;7.00;7.00;;;;;24.78;47.17;100247.91;5116663;27;45418;-81
2022/06/19 09:45:27;;;;;;;;;11.75;11.75;;;;;25.68;45.70;100247.34;5116893;27;45535;-79
2022/06/19 09:48:15;;;;;;;;;7.50;6.25;;;;;26.62;43.85;100223.59;5117127;27;46381;-80
2022/06/19 09:50:59;;;;;;;;;12.75;12.75;;;;;27.17;42.30;100223.00;5116741;27;45440;-80
2022/06/19 09:53:49;;;;;;;;;11.00;10.75;;;;;27.71;40.78;100234.97;5116169;27;45661;-78
2022/06/19 09:56:31;;;;;;;;;11.50;11.50;;;;;28.32;39.42;100240.78;5115626;27;45358;-80
2022/06/19 09:58:57;;;;;;;;;13.25;10.50;;;;;28.62;39.15;100227.84;5115524;27;45477;-81
2022/06/19 10:01:24;;;;;;;;;12.00;10.00;;;;;29.10;38.62;100217.53;5119956;27;45630;-77
2022/06/19 10:04:09;;;;;;;;;9.75;9.75;;;;;29.34;36.78;100211.41;5119171;27;45583;-80
2022/06/19 10:06:37;;;;;;;;;11.00;9.25;;;;;29.78;36.98;100205.81;5116918;27;45463;-77
2022/06/19 10:09:27;;;;;;;;;8.75;8.75;;;;;30.15;35.37;100206.47;5115378;27;45645;-81
2022/06/19 10:11:56;;;;;;;;;9.00;8.00;;;;;30.47;36.68;100201.09;5116053;27;45421;-79
2022/06/19 10:14:32;;;;;;;;;9.50;8.25;;;;;30.84;34.21;100207.06;5107272;27;45336;-79
2022/06/19 10:17:27;;;;;;;;;10.25;8.00;;;;;30.95;34.36;100198.50;5096247;27;45267;-81
2022/06/19 10:20:12;;;;;;;;;9.00;9.00;;;;;31.30;34.02;100196.41;5103660;27;46243;-78
2022/06/19 10:22:47;;;;;;;;;12.25;12.25;;;;;31.22;33.84;100196.47;5114068;27;45537;-77
2022/06/19 10:25:24;;;;;;;;;8.75;6.75;;;;;31.08;33.67;100180.78;5116360;27;45328;-80
2022/06/19 10:27:51;;;;;;;;;12.00;10.50;;;;;30.86;33.92;100166.81;5121664;27;45498;-77
2022/06/19 10:30:24;;;;;;;;;15.00;15.00;;;;;30.61;34.34;100174.16;5117246;27;45420;-78
2022/06/19 10:33:27;;;;;;;;;12.00;12.00;;;;;30.85;34.62;100170.56;5116995;27;45471;-78
2022/06/19 10:36:13;;;;;;;;;11.25;11.00;;;;;31.17;33.83;100168.81;5122664;27;45356;-78
2022/06/19 10:38:48;;;;;;;;;13.75;12.00;;;;;30.97;33.82;100158.25;5122707;27;45378;-78
2022/06/19 10:44:28;;;;;;;;;14.50;14.00;;;;;30.84;34.32;100174.34;5118926;27;45491;-78
2022/06/19 10:47:23;;;;;;;;;12.00;11.00;;;;;30.75;34.35;100175.38;5119384;27;45372;-79
2022/06/19 10:50:11;;;;;;;;;14.50;11.00;;;;;30.67;34.22;100164.44;5119002;27;45550;-78
2022/06/19 10:52:55;;;;;;;;;15.75;11.25;;;;;30.70;34.92;100188.66;5116961;27;45565;-80
2022/06/19 10:55:38;;;;;;;;;12.00;12.00;;;;;30.75;33.70;100167.19;5120337;27;45559;-80
2022/06/19 10:58:15;;;;;;;;;15.25;13.00;;;;;30.81;34.45;100166.50;5119217;27;45302;-78
2022/06/19 11:00:42;;;;;;;;;12.25;11.25;;;;;30.75;34.80;100164.47;5120504;27;45489;-82
2022/06/19 11:06:08;;;;;;;;;12.00;11.50;;;;;30.58;34.13;100152.69;5117843;27;45501;-82
2022/06/19 11:08:35;;;;;;;;;16.25;11.75;;;;;30.68;34.87;100158.81;5117179;27;45512;-82
2022/06/19 11:11:02;;;;;;;;;12.25;12.25;;;;;30.39;34.79;100153.88;5120717;27;45494;-80
2022/06/19 11:14:06;;;;;;;;;14.25;13.50;;;;;30.31;35.33;100171.06;5117714;27;45514;-79
2022/06/19 11:16:34;;;;;;;;;12.75;11.25;;;;;30.09;35.64;100165.25;5115203;27;45607;-78
2022/06/19 11:19:00;;;;;;;;;12.00;12.00;;;;;30.04;35.88;100174.94;5117275;27;45790;-78
2022/06/19 11:21:31;;;;;;;;;12.25;12.00;;;;;30.21;35.43;100190.28;5115902;27;45601;-78
2022/06/19 11:24:03;;;;;;;;;14.00;12.75;;;;;30.36;35.56;100185.03;5107039;27;46388;-78
2022/06/19 11:26:39;;;;;;;;;15.00;12.50;;;;;30.55;35.18;100175.72;5119219;27;45385;-76
2022/06/19 11:29:13;;;;;;;;;13.00;11.75;;;;;30.68;35.27;100166.16;5117160;27;45853;-79
2022/06/19 11:32:01;;;;;;;;;15.00;13.50;;;;;30.59;35.28;100162.59;5117750;27;45417;-78
2022/06/19 11:34:47;;;;;;;;;10.50;10.00;;;;;30.33;35.91;100152.66;5116117;27;45478;-79
2022/06/19 11:37:25;;;;;;;;;10.75;10.75;;;;;29.82;36.19;100152.78;5117840;27;45547;-78
2022/06/19 11:40:09;;;;;;;;;10.00;10.00;;;;;29.85;35.67;100182.41;5117364;27;45500;-80
2022/06/19 11:42:38;;;;;;;;;13.25;13.25;;;;;29.68;36.10;100156.09;5117641;27;45789;-79
2022/06/19 11:45:31;;;;;;;;;15.25;12.25;;;;;29.32;37.00;100145.41;5117191;27;45494;-78
2022/06/19 11:47:56;;;;;;;;;8.75;8.75;;;;;29.36;36.93;100163.13;5115620;27;45404;-78